createdAt,value
2022-08-18T00:01:18.793Z,22.25
2022-08-18T00:04:35.860Z,22.35
2022-08-18T00:07:47.235Z,22.50
2022-08-18T00:10:54.184Z,22.54
2022-08-18T00:14:04.575Z,22.22
2022-08-18T00:17:12.598Z,22.16
2022-08-18T00:20:22.680Z,22.05
2022-08-18T00:23:28.889Z,22.09
2022-08-18T00:26:36.967Z,21.97
2022-08-18T00:29:41.274Z,22.11
2022-08-18T00:32:49.682Z,22.01
2022-08-18T00:35:53.662Z,21.62
2022-08-18T00:38:57.376Z,21.90
2022-08-18T00:42:14.249Z,21.75
2022-08-18T00:45:36.209Z,21.67
2022-08-18T00:48:40.076Z,21.85
2022-08-18T00:51:53.276Z,21.99
2022-08-18T00:54:57.656Z,22.06
2022-08-18T00:58:09.679Z,21.89
2022-08-18T01:01:17.645Z,21.69
2022-08-18T01:04:34.505Z,21.45
2022-08-18T01:07:45.038Z,21.37
2022-08-18T01:10:55.809Z,21.51
2022-08-18T01:14:11.914Z,21.62
2022-08-18T01:17:33.257Z,21.39
2022-08-18T01:21:16.823Z,21.15
2022-08-18T01:24:46.458Z,21.29
2022-08-18T01:27:54.669Z,21.10
2022-08-18T01:31:00.674Z,21.03
2022-08-18T01:34:15.315Z,20.81
2022-08-18T01:37:22.797Z,20.85
2022-08-18T01:41:22.912Z,21.11
2022-08-18T01:43:53.580Z,21.24
2022-08-18T01:46:59.692Z,21.14
2022-08-18T01:50:03.986Z,21.24
2022-08-18T01:53:12.174Z,21.01
2022-08-18T01:56:21.212Z,21.12
2022-08-18T01:59:27.541Z,21.35
2022-08-18T02:02:37.443Z,21.13
2022-08-18T02:05:47.744Z,21.25
2022-08-18T02:08:53.851Z,21.16
2022-08-18T02:12:02.642Z,21.23
2022-08-18T02:15:08.586Z,21.04
2022-08-18T02:18:25.992Z,21.17
2022-08-18T02:21:40.859Z,20.77
2022-08-18T02:24:48.798Z,20.65
2022-08-18T02:27:59.460Z,20.72
2022-08-18T02:31:07.764Z,20.30
2022-08-18T02:34:16.573Z,20.40
2022-08-18T02:37:25.755Z,20.52
2022-08-18T02:40:34.107Z,20.56
2022-08-18T02:43:42.349Z,20.45
2022-08-18T02:46:49.053Z,20.41
2022-08-18T02:49:55.703Z,19.82
2022-08-18T02:52:59.933Z,20.30
2022-08-18T02:56:32.751Z,20.26
2022-08-18T02:59:49.587Z,19.97
2022-08-18T03:02:55.427Z,20.08
2022-08-18T03:05:59.752Z,20.01
2022-08-18T03:09:06.895Z,20.33
2022-08-18T03:12:12.467Z,20.18
2022-08-18T03:15:22.950Z,20.16
2022-08-18T03:18:31.040Z,20.11
2022-08-18T03:21:36.624Z,20.28
2022-08-18T03:24:40.436Z,20.14
2022-08-18T03:27:44.647Z,20.31
2022-08-18T03:30:49.826Z,20.22
2022-08-18T03:33:55.245Z,20.27
2022-08-18T03:37:04.138Z,20.19
2022-08-18T03:40:13.619Z,19.72
2022-08-18T03:43:49.864Z,19.80
2022-08-18T03:46:54.408Z,19.75
2022-08-18T03:49:58.236Z,19.75
2022-08-18T03:53:05.198Z,19.67
2022-08-18T03:56:17.724Z,19.93
2022-08-18T03:59:27.419Z,19.95
2022-08-18T04:02:32.772Z,19.64
2022-08-18T04:05:41.592Z,19.82
2022-08-18T04:08:46.688Z,19.57
2022-08-18T04:11:54.109Z,19.57
2022-08-18T04:14:57.659Z,19.91
2022-08-18T04:18:04.657Z,19.85
2022-08-18T04:21:11.299Z,19.68
2022-08-18T04:24:15.575Z,19.81
2022-08-18T04:27:21.250Z,19.97
2022-08-18T04:30:39.060Z,20.07
2022-08-18T04:33:45.724Z,20.22
2022-08-18T04:36:54.214Z,20.22
2022-08-18T04:40:00.379Z,20.20
2022-08-18T04:43:11.787Z,20.52
2022-08-18T04:46:15.359Z,20.58
2022-08-18T04:49:22.463Z,20.79
2022-08-18T04:52:43.244Z,20.87
2022-08-18T04:55:51.796Z,21.31
2022-08-18T04:58:57.686Z,21.74
2022-08-18T05:02:05.696Z,22.18
2022-08-18T05:05:11.541Z,22.56
2022-08-18T05:08:15.315Z,22.97
2022-08-18T05:11:18.978Z,23.29
2022-08-18T05:14:23.369Z,23.65
2022-08-18T05:17:30.658Z,23.84
2022-08-18T05:20:37.925Z,24.18
2022-08-18T05:23:43.230Z,24.40
2022-08-18T05:26:49.196Z,24.55
2022-08-18T05:29:53.596Z,24.73
2022-08-18T05:32:59.806Z,25.03
2022-08-18T05:36:07.960Z,25.47
2022-08-18T05:39:22.206Z,25.70
2022-08-18T05:42:29.985Z,25.53
2022-08-18T05:45:37.688Z,25.71
2022-08-18T05:48:44.676Z,25.93
2022-08-18T05:51:55.589Z,26.06
2022-08-18T05:55:21.574Z,26.07
2022-08-18T05:58:33.262Z,26.20
2022-08-18T06:01:52.670Z,26.53
2022-08-18T06:05:01.491Z,26.82
2022-08-18T06:08:10.988Z,26.88
2022-08-18T06:11:17.334Z,27.19
2022-08-18T06:14:26.848Z,27.16
2022-08-18T06:17:46.717Z,27.36
2022-08-18T06:21:21.024Z,27.55
2022-08-18T06:24:37.242Z,27.91
2022-08-18T06:27:55.770Z,28.02
2022-08-18T06:31:10.352Z,28.32
2022-08-18T06:34:26.467Z,28.53
2022-08-18T06:37:35.191Z,28.78
2022-08-18T06:40:40.210Z,29.08
2022-08-18T06:43:57.426Z,29.25
2022-08-18T06:47:10.315Z,29.57
2022-08-18T06:50:26.264Z,30.12
2022-08-18T06:53:55.217Z,30.47
2022-08-18T06:57:00.549Z,31.12
2022-08-18T07:00:12.820Z,31.70
2022-08-18T07:03:23.081Z,31.78
2022-08-18T07:06:31.764Z,32.07
2022-08-18T07:09:36.437Z,32.60
2022-08-18T07:12:41.724Z,33.00
2022-08-18T07:15:48.268Z,33.47
2022-08-18T07:18:53.686Z,33.67
2022-08-18T07:22:04.952Z,33.82
2022-08-18T07:25:20.722Z,34.27
2022-08-18T07:28:33.214Z,34.28
2022-08-18T07:31:44.050Z,34.46
2022-08-18T07:34:53.751Z,35.03
2022-08-18T07:38:18.713Z,34.97
2022-08-18T07:41:33.196Z,35.26
2022-08-18T07:44:47.006Z,34.95
2022-08-18T07:48:07.214Z,35.28
2022-08-18T07:51:27.099Z,35.41
2022-08-18T07:54:52.115Z,35.28
2022-08-18T07:58:12.437Z,35.48
2022-08-18T08:01:29.748Z,36.10
2022-08-18T08:04:46.033Z,36.33
2022-08-18T08:07:59.362Z,36.59
2022-08-18T08:11:16.889Z,36.69
2022-08-18T08:14:37.237Z,36.61
2022-08-18T08:17:54.119Z,36.38
2022-08-18T08:21:04.346Z,36.11
2022-08-18T08:24:19.143Z,35.53
2022-08-18T08:27:49.059Z,35.22
2022-08-18T08:31:25.641Z,34.83
2022-08-18T08:34:36.644Z,34.49
2022-08-18T08:37:46.676Z,34.21
2022-08-18T08:40:57.373Z,33.76
2022-08-18T08:44:08.082Z,33.75
2022-08-18T08:47:21.875Z,33.59
2022-08-18T08:50:34.584Z,33.27
2022-08-18T08:53:45.574Z,33.23
2022-08-18T08:56:54.515Z,33.24
2022-08-18T09:00:04.113Z,33.24
2022-08-18T09:03:30.596Z,33.16
2022-08-18T09:06:43.853Z,33.13
2022-08-18T09:10:25.856Z,32.87
2022-08-18T09:13:56.178Z,32.93
2022-08-18T09:17:13.863Z,32.91
2022-08-18T09:20:37.648Z,32.79
2022-08-18T09:23:47.200Z,32.71
2022-08-18T09:26:54.641Z,32.71
2022-08-18T09:30:01.874Z,32.77
2022-08-18T09:33:29.563Z,32.68
2022-08-18T09:36:45.308Z,32.65
2022-08-18T09:40:19.565Z,32.66
2022-08-18T09:43:39.921Z,32.53
2022-08-18T09:46:59.484Z,32.51
2022-08-18T09:50:48.790Z,32.46
2022-08-18T09:54:21.299Z,32.46
2022-08-18T09:57:28.626Z,32.43
2022-08-18T10:00:33.654Z,32.47
2022-08-18T10:03:37.264Z,32.42
2022-08-18T10:06:43.022Z,32.53
2022-08-18T10:10:39.407Z,32.53
2022-08-18T10:13:37.497Z,32.44
2022-08-18T10:17:15.929Z,32.52
2022-08-18T10:20:27.308Z,32.50
2022-08-18T10:23:58.167Z,32.49
2022-08-18T10:27:13.451Z,32.54
2022-08-18T10:34:39.352Z,32.55
2022-08-18T10:41:21.675Z,32.78
2022-08-18T10:48:11.913Z,32.77
2022-08-18T10:51:37.759Z,32.81
2022-08-18T10:55:19.578Z,32.78
2022-08-18T10:58:35.821Z,32.85
2022-08-18T11:02:10.359Z,32.90
2022-08-18T11:05:21.408Z,32.95
2022-08-18T11:08:27.747Z,32.91
2022-08-18T11:11:52.571Z,32.87
2022-08-18T11:15:21.247Z,32.92
2022-08-18T11:18:36.298Z,32.87
2022-08-18T11:21:51.522Z,32.97
2022-08-18T11:24:57.775Z,32.96
2022-08-18T11:28:05.118Z,33.00
2022-08-18T11:31:12.628Z,33.01
2022-08-18T11:34:24.290Z,33.04
2022-08-18T11:37:45.164Z,33.05
2022-08-18T11:41:17.335Z,32.82
2022-08-18T11:44:25.173Z,33.03
2022-08-18T11:51:12.170Z,33.07
2022-08-18T11:54:24.748Z,33.13
2022-08-18T11:57:49.261Z,33.16
2022-08-18T12:01:02.876Z,33.16
2022-08-18T12:04:17.121Z,33.12
2022-08-18T12:07:30.171Z,33.18
2022-08-18T12:10:34.233Z,33.25
2022-08-18T12:13:39.665Z,33.36
2022-08-18T12:16:46.472Z,33.38
2022-08-18T12:19:53.040Z,33.41
2022-08-18T12:22:58.466Z,33.44
2022-08-18T12:26:03.737Z,33.45
2022-08-18T12:29:11.112Z,33.54
2022-08-18T12:32:18.259Z,33.55
2022-08-18T12:35:41.815Z,33.59
2022-08-18T12:42:10.243Z,33.60
2022-08-18T12:45:15.921Z,33.64
2022-08-18T12:48:22.555Z,33.65
2022-08-18T12:51:30.735Z,33.63
2022-08-18T12:54:35.999Z,33.59
2022-08-18T12:57:52.446Z,33.56
2022-08-18T13:00:59.154Z,33.55
2022-08-18T13:04:12.392Z,33.54
2022-08-18T13:07:19.098Z,33.50
2022-08-18T13:10:45.578Z,33.53
2022-08-18T13:13:47.357Z,33.50
2022-08-18T13:16:58.312Z,33.50
2022-08-18T13:20:03.441Z,33.51
2022-08-18T13:23:10.571Z,33.59
2022-08-18T13:26:26.047Z,33.54
2022-08-18T13:29:31.549Z,33.56
2022-08-18T13:32:58.426Z,33.52
2022-08-18T13:36:02.531Z,33.52
2022-08-18T13:39:06.477Z,33.56
2022-08-18T13:42:26.604Z,33.62
2022-08-18T13:45:39.525Z,33.61
2022-08-18T13:48:46.728Z,33.65
2022-08-18T13:52:00.780Z,33.67
2022-08-18T13:55:08.530Z,33.70
2022-08-18T13:58:20.990Z,33.72
2022-08-18T14:01:45.101Z,33.73
2022-08-18T14:04:51.738Z,33.73
2022-08-18T14:07:55.955Z,33.73
2022-08-18T14:11:03.837Z,33.68
2022-08-18T14:14:08.050Z,33.73
2022-08-18T14:17:11.605Z,33.74
2022-08-18T14:20:36.008Z,33.73
2022-08-18T14:24:00.992Z,33.74
2022-08-18T14:27:06.341Z,33.74
2022-08-18T14:30:15.328Z,33.74
2022-08-18T14:33:34.140Z,33.77
2022-08-18T14:36:48.746Z,33.74
2022-08-18T14:39:53.823Z,33.80
2022-08-18T14:42:58.624Z,33.78
2022-08-18T14:46:02.892Z,33.76
2022-08-18T14:49:06.944Z,33.74
2022-08-18T14:52:14.736Z,33.75
2022-08-18T14:55:19.449Z,33.80
2022-08-18T14:58:29.022Z,33.80
2022-08-18T15:01:35.001Z,33.75
2022-08-18T15:04:52.978Z,33.77
2022-08-18T15:08:03.843Z,33.75
2022-08-18T15:11:11.414Z,33.74
2022-08-18T15:14:17.665Z,33.78
2022-08-18T15:17:24.118Z,33.79
2022-08-18T15:20:30.841Z,33.81
2022-08-18T15:23:57.474Z,33.79
2022-08-18T15:27:06.104Z,33.73
2022-08-18T15:30:19.487Z,33.71
2022-08-18T15:33:25.871Z,33.66
2022-08-18T15:36:36.082Z,33.64
2022-08-18T15:39:41.417Z,33.66
2022-08-18T15:42:50.013Z,33.64
2022-08-18T15:45:57.978Z,33.61
2022-08-18T15:49:05.446Z,33.63
2022-08-18T15:52:13.488Z,33.60
2022-08-18T15:55:24.549Z,33.59
2022-08-18T15:58:29.280Z,33.60
2022-08-18T16:01:40.527Z,33.56
2022-08-18T16:04:45.802Z,33.52
2022-08-18T16:07:50.303Z,33.53
2022-08-18T16:11:00.047Z,33.51
2022-08-18T16:14:09.339Z,33.45
2022-08-18T16:17:23.577Z,33.39
2022-08-18T16:20:35.008Z,33.41
2022-08-18T16:23:39.802Z,33.41
2022-08-18T16:26:45.714Z,33.37
2022-08-18T16:29:49.799Z,33.29
2022-08-18T16:32:54.445Z,33.22
2022-08-18T16:35:58.354Z,33.14
2022-08-18T16:39:03.341Z,33.04
2022-08-18T16:42:09.294Z,32.97
2022-08-18T16:45:14.238Z,32.86
2022-08-18T16:48:18.652Z,32.81
2022-08-18T16:51:26.516Z,32.70
2022-08-18T16:54:30.438Z,32.63
2022-08-18T16:57:56.913Z,32.52
2022-08-18T17:01:18.924Z,32.41
2022-08-18T17:04:26.429Z,31.97
2022-08-18T17:07:31.034Z,31.88
2022-08-18T17:10:38.109Z,31.93
2022-08-18T17:13:43.763Z,31.50
2022-08-18T17:16:56.729Z,31.59
2022-08-18T17:20:07.024Z,31.53
2022-08-18T17:23:16.391Z,31.40
2022-08-18T17:26:30.572Z,31.23
2022-08-18T17:29:45.710Z,31.21
2022-08-18T17:32:54.533Z,31.17
2022-08-18T17:36:04.741Z,30.79
2022-08-18T17:39:17.062Z,30.69
2022-08-18T17:42:37.311Z,30.72
2022-08-18T17:45:48.537Z,30.42
2022-08-18T17:48:59.545Z,30.18
2022-08-18T17:52:03.292Z,30.04
2022-08-18T17:55:15.424Z,29.96
2022-08-18T17:58:31.273Z,29.86
2022-08-18T18:01:39.965Z,29.62
2022-08-18T18:04:45.958Z,29.62
2022-08-18T18:08:00.269Z,29.56
2022-08-18T18:11:12.718Z,29.44
2022-08-18T18:14:31.736Z,29.51
2022-08-18T18:17:40.027Z,29.52
2022-08-18T18:20:46.195Z,29.24
2022-08-18T18:24:00.023Z,29.10
2022-08-18T18:27:25.702Z,29.01
2022-08-18T18:30:40.993Z,28.84
2022-08-18T18:33:56.086Z,28.91
2022-08-18T18:37:01.909Z,28.82
2022-08-18T18:40:20.767Z,28.57
2022-08-18T18:43:29.032Z,28.49
2022-08-18T18:46:35.987Z,28.36
2022-08-18T18:49:48.105Z,28.17
2022-08-18T18:53:05.910Z,28.36
2022-08-18T18:56:18.845Z,28.25
2022-08-18T18:59:38.587Z,28.14
2022-08-18T19:03:04.749Z,27.95
2022-08-18T19:06:24.397Z,27.71
2022-08-18T19:09:50.281Z,27.59
2022-08-18T19:12:59.602Z,27.58
2022-08-18T19:16:23.292Z,27.63
2022-08-18T19:19:39.246Z,27.48
2022-08-18T19:23:37.490Z,27.47
2022-08-18T19:31:54.822Z,27.08
2022-08-18T19:35:04.358Z,27.17
2022-08-18T19:38:27.867Z,26.82
2022-08-18T19:41:42.609Z,26.72
2022-08-18T19:45:15.397Z,26.48
2022-08-18T19:48:40.330Z,26.59
2022-08-18T19:51:49.553Z,26.64
2022-08-18T19:55:05.585Z,26.59
2022-08-18T19:58:37.080Z,26.63
2022-08-18T20:01:55.518Z,26.57
2022-08-18T20:05:20.819Z,26.49
2022-08-18T20:08:50.226Z,26.43
2022-08-18T20:12:14.966Z,26.30
2022-08-18T20:15:25.468Z,26.04
2022-08-18T20:18:41.661Z,25.65
2022-08-18T20:21:48.631Z,25.88
2022-08-18T20:24:54.556Z,25.74
2022-08-18T20:28:32.760Z,25.71
2022-08-18T20:31:54.835Z,25.94
2022-08-18T20:35:18.949Z,25.79
2022-08-18T20:38:35.159Z,25.87
2022-08-18T20:41:50.909Z,25.63
2022-08-18T20:45:00.510Z,25.63
2022-08-18T20:48:22.477Z,25.54
2022-08-18T20:51:30.897Z,25.68
2022-08-18T20:54:57.174Z,25.69
2022-08-18T20:58:08.262Z,25.14
2022-08-18T21:01:19.695Z,25.12
2022-08-18T21:04:52.058Z,25.49
2022-08-18T21:08:04.128Z,25.34
2022-08-18T21:11:32.138Z,25.44
2022-08-18T21:14:36.553Z,25.27
2022-08-18T21:17:43.682Z,25.19
2022-08-18T21:20:49.120Z,25.05
2022-08-18T21:23:56.593Z,24.63
2022-08-18T21:27:06.977Z,24.56
2022-08-18T21:30:19.798Z,24.79
2022-08-18T21:33:27.964Z,24.94
2022-08-18T21:36:37.865Z,25.04
2022-08-18T21:39:52.914Z,24.61
2022-08-18T21:42:59.504Z,24.76
2022-08-18T21:46:04.561Z,24.55
2022-08-18T21:49:12.700Z,24.65
2022-08-18T21:52:25.420Z,24.77
2022-08-18T21:55:40.021Z,24.72
2022-08-18T21:58:47.172Z,24.57
2022-08-18T22:01:53.679Z,24.70
2022-08-18T22:04:59.417Z,24.58
2022-08-18T22:08:04.030Z,24.56
2022-08-18T22:12:00.754Z,24.24
2022-08-18T22:15:08.502Z,24.07
2022-08-18T22:18:36.990Z,24.22
2022-08-18T22:21:47.185Z,24.35
2022-08-18T22:24:54.328Z,24.27
2022-08-18T22:28:01.249Z,24.28
2022-08-18T22:31:06.004Z,24.36
2022-08-18T22:34:12.432Z,24.06
2022-08-18T22:37:21.128Z,24.29
2022-08-18T22:40:25.119Z,24.25
2022-08-18T22:43:28.815Z,24.21
2022-08-18T22:46:33.666Z,23.97
2022-08-18T22:49:38.452Z,24.05
2022-08-18T22:52:48.369Z,23.82
2022-08-18T22:55:53.455Z,23.82
2022-08-18T22:58:59.509Z,24.05
2022-08-18T23:02:03.484Z,24.03
2022-08-18T23:05:08.506Z,23.84
2022-08-18T23:08:13.998Z,23.50
2022-08-18T23:11:19.663Z,23.37
2022-08-18T23:14:24.705Z,23.25
2022-08-18T23:17:29.002Z,23.44
2022-08-18T23:20:33.173Z,23.57
2022-08-18T23:23:43.624Z,23.84
2022-08-18T23:26:50.022Z,23.63
2022-08-18T23:29:54.380Z,23.61
2022-08-18T23:32:58.615Z,23.45
2022-08-18T23:36:02.637Z,23.36
2022-08-18T23:39:08.330Z,23.50
2022-08-18T23:42:13.211Z,23.38
2022-08-18T23:45:17.150Z,23.42
2022-08-18T23:48:24.636Z,23.61
2022-08-18T23:51:32.363Z,23.52
2022-08-18T23:54:43.233Z,23.62
2022-08-18T23:57:47.936Z,23.70
